Airfield :
LOGIN :

Register | Disclaimer

   EN    FR    IT 

 










Legend :    VFR   Marginal VFR   IFR   Intensive IFR   Very Intensive IFR
Visi :
Ceiling :
>= 8 km
>= 3000ft
5 to 8 km
1000 to 3000 ft
1500m to 5 km
500 to 1000 ft
800 to 1500m
200 to 500 ft
< 800m
< 200 ft
Symbols :   Thunderstorms  Fog  Heavy snow  Heavy precipitations  Wind > 20 kt
SIGMETs :     Misc.  Thunderstorms  Icing  Turbulence  Mountain Waves  Volcanic Ashes






- Airport Elevation : 265 ft


LFMC - Le Luc

CURRENT METAR :
  • 181300Z AUTO 06012KT 030V090 9999 ////// 13/01 Q1007

EXPIRED METARs :
  • 181230Z AUTO 30018G31KT 270V360 9999 ////// 16/M04 Q1006
  • 181130Z AUTO 28023KT 9999 ////// 17/M03 Q1006
  • 181100Z AUTO 29022G36KT 9999 ////// 17/M02 Q1006
  • 181030Z AUTO 30019G32KT 260V330 9999 ////// 17/M01 Q1007
  • 181000Z AUTO 31020G32KT 9999 ////// 16/M01 Q1007
  • 180930Z AUTO 31024KT 9999 ////// 15/M02 Q1007
  • 180900Z AUTO 31025G36KT 9999 ////// 14/M01 Q1007
  • 180830Z AUTO 30018G30KT 270V330 9999 ////// 14/M00 Q1007

TAF N/A



MET'MAP, your aeronautical weather chart ! - Copyright ORBIFLY December 2007 - Disclaimer

ORBIFLY MET'MAP TEAM :

Programming & Development : Alexandra Zaïnal
Original concept : Baudouin d'Aumeries
Technical & hardware support : Manuel Goepfert
Assistance : Marc-Olivier Méhu




SOURCES & CREDITS :

   NOAA